createdAt,value
2022-09-23T00:01:18.174Z,73.10
2022-09-23T00:03:46.466Z,73.10
2022-09-23T00:06:15.500Z,73.10
2022-09-23T00:08:43.058Z,73.10
2022-09-23T00:11:15.133Z,73.20
2022-09-23T00:13:43.710Z,73.10
2022-09-23T00:16:13.556Z,72.90
2022-09-23T00:18:41.033Z,73.00
2022-09-23T00:21:10.173Z,73.00
2022-09-23T00:23:54.113Z,73.00
2022-09-23T00:26:21.739Z,72.60
2022-09-23T00:28:49.185Z,73.30
2022-09-23T00:31:24.076Z,73.20
2022-09-23T00:33:58.718Z,73.10
2022-09-23T00:36:25.857Z,73.10
2022-09-23T00:38:53.098Z,73.30
2022-09-23T00:41:20.309Z,73.30
2022-09-23T00:43:49.919Z,73.40
2022-09-23T00:46:24.076Z,73.10
2022-09-23T00:48:54.756Z,73.40
2022-09-23T00:51:23.342Z,73.30
2022-09-23T00:53:50.549Z,74.60
2022-09-23T00:56:17.848Z,75.00
2022-09-23T00:58:45.211Z,74.80
2022-09-23T01:01:13.972Z,74.90
2022-09-23T01:03:43.359Z,75.00
2022-09-23T01:06:10.773Z,74.80
2022-09-23T01:08:37.776Z,75.40
2022-09-23T01:11:23.531Z,75.20
2022-09-23T01:13:56.259Z,75.40
2022-09-23T01:16:35.951Z,75.50
2022-09-23T01:19:34.076Z,75.60
2022-09-23T01:22:18.205Z,76.60
2022-09-23T01:25:02.343Z,75.60
2022-09-23T01:27:42.123Z,75.80
2022-09-23T01:30:35.118Z,75.90
2022-09-23T01:33:13.691Z,75.90
2022-09-23T01:35:49.525Z,76.00
2022-09-23T01:38:21.363Z,75.70
2022-09-23T01:40:54.361Z,75.70
2022-09-23T01:43:26.713Z,75.70
2022-09-23T01:45:56.516Z,75.70
2022-09-23T01:48:26.860Z,76.10
2022-09-23T01:51:15.643Z,75.70
2022-09-23T01:54:15.943Z,76.10
2022-09-23T01:56:44.469Z,76.20
2022-09-23T01:59:27.580Z,76.80
2022-09-23T02:02:16.782Z,76.50
2022-09-23T02:04:51.573Z,76.80
2022-09-23T02:07:35.586Z,76.80
2022-09-23T02:10:14.662Z,76.90
2022-09-23T02:12:42.377Z,77.30
2022-09-23T02:15:11.970Z,77.10
2022-09-23T02:18:03.828Z,76.80
2022-09-23T02:20:36.925Z,77.00
2022-09-23T02:23:07.898Z,76.70
2022-09-23T02:26:00.898Z,77.80
2022-09-23T02:28:34.187Z,77.20
2022-09-23T02:31:24.671Z,77.10
2022-09-23T02:33:57.473Z,77.50
2022-09-23T02:36:40.134Z,77.80
2022-09-23T02:39:09.226Z,78.10
2022-09-23T02:42:10.113Z,78.00
2022-09-23T02:44:37.360Z,78.30
2022-09-23T02:47:04.404Z,78.20
2022-09-23T02:49:32.640Z,78.30
2022-09-23T02:52:04.907Z,78.50
2022-09-23T02:54:35.496Z,78.60
2022-09-23T02:57:04.166Z,78.50
2022-09-23T02:59:33.056Z,78.90
2022-09-23T03:02:21.784Z,78.70
2022-09-23T03:05:08.578Z,79.00
2022-09-23T03:08:00.288Z,79.00
2022-09-23T03:10:55.895Z,78.90
2022-09-23T03:13:43.295Z,78.80
2022-09-23T03:16:12.895Z,79.20
2022-09-23T03:19:03.756Z,79.20
2022-09-23T03:21:38.690Z,79.20
2022-09-23T03:24:06.655Z,79.20
2022-09-23T03:26:36.374Z,79.30
2022-09-23T03:29:04.729Z,79.20
2022-09-23T03:31:35.382Z,79.30
2022-09-23T03:34:03.797Z,79.30
2022-09-23T03:36:52.108Z,79.50
2022-09-23T03:39:40.461Z,79.40
2022-09-23T03:42:19.444Z,79.70
2022-09-23T03:44:46.968Z,79.30
2022-09-23T03:47:14.966Z,79.40
2022-09-23T03:49:44.076Z,79.40
2022-09-23T03:52:11.346Z,79.20
2022-09-23T03:54:38.386Z,78.70
2022-09-23T03:57:06.201Z,79.20
2022-09-23T03:59:33.971Z,79.40
2022-09-23T04:02:01.945Z,79.10
2022-09-23T04:04:29.391Z,79.10
2022-09-23T04:06:56.861Z,79.00
2022-09-23T04:09:24.256Z,79.10
2022-09-23T04:11:51.772Z,79.30
2022-09-23T04:14:19.575Z,79.10
2022-09-23T04:16:47.204Z,78.90
2022-09-23T04:19:14.633Z,79.30
2022-09-23T04:21:42.428Z,79.60
2022-09-23T04:24:09.883Z,79.60
2022-09-23T04:26:37.380Z,79.70
2022-09-23T04:29:05.068Z,79.70
2022-09-23T04:31:33.135Z,79.80
2022-09-23T04:34:00.507Z,79.80
2022-09-23T04:36:29.230Z,79.50
2022-09-23T04:38:56.538Z,79.60
2022-09-23T04:41:23.702Z,79.70
2022-09-23T04:43:50.836Z,79.40
2022-09-23T04:46:17.952Z,79.40
2022-09-23T04:48:45.317Z,79.40
2022-09-23T04:51:17.874Z,79.70
2022-09-23T04:53:45.739Z,79.60
2022-09-23T04:56:23.744Z,79.50
2022-09-23T04:58:50.912Z,79.40
2022-09-23T05:01:27.085Z,79.50
2022-09-23T05:03:57.896Z,80.30
2022-09-23T05:06:25.243Z,79.70
2022-09-23T05:08:54.307Z,79.70
2022-09-23T05:11:21.598Z,79.90
2022-09-23T05:13:49.275Z,79.70
2022-09-23T05:16:16.676Z,80.00
2022-09-23T05:18:44.113Z,80.00
2022-09-23T05:21:12.000Z,80.90
2022-09-23T05:23:39.976Z,79.90
2022-09-23T05:26:09.166Z,79.70
2022-09-23T05:28:37.602Z,80.00
2022-09-23T05:31:08.327Z,80.30
2022-09-23T05:33:36.385Z,80.30
2022-09-23T05:36:06.869Z,80.40
2022-09-23T05:38:35.164Z,80.10
2022-09-23T05:41:09.306Z,80.00
2022-09-23T05:43:37.284Z,79.60
2022-09-23T05:46:08.177Z,79.70
2022-09-23T05:48:35.883Z,79.50
2022-09-23T05:51:03.708Z,79.60
2022-09-23T05:53:33.063Z,79.70
2022-09-23T05:56:00.293Z,79.80
2022-09-23T05:58:27.957Z,79.90
2022-09-23T06:00:58.078Z,79.70
2022-09-23T06:03:25.364Z,79.60
2022-09-23T06:05:55.871Z,79.50
2022-09-23T06:08:23.539Z,79.50
2022-09-23T06:10:54.379Z,79.70
2022-09-23T06:13:21.780Z,80.50
2022-09-23T06:15:48.995Z,81.50
2022-09-23T06:18:17.627Z,81.80
2022-09-23T06:20:44.776Z,82.80
2022-09-23T06:23:11.913Z,82.60
2022-09-23T06:25:39.152Z,83.20
2022-09-23T06:28:08.659Z,83.90
2022-09-23T06:30:35.849Z,84.20
2022-09-23T06:33:03.587Z,84.80
2022-09-23T06:35:32.875Z,85.10
2022-09-23T06:38:00.466Z,85.20
2022-09-23T06:40:27.749Z,85.30
2022-09-23T06:42:59.204Z,85.50
2022-09-23T06:45:27.355Z,86.00
2022-09-23T06:47:58.022Z,85.40
2022-09-23T06:50:28.783Z,85.50
2022-09-23T06:52:57.686Z,85.40
2022-09-23T06:55:25.371Z,85.90
2022-09-23T06:57:52.834Z,85.70
2022-09-23T07:00:20.147Z,86.00
2022-09-23T07:02:47.852Z,86.20
2022-09-23T07:05:17.615Z,86.10
2022-09-23T07:07:45.143Z,85.80
2022-09-23T07:10:12.449Z,86.00
2022-09-23T07:12:40.160Z,86.10
2022-09-23T07:15:08.373Z,86.20
2022-09-23T07:17:35.570Z,86.70
2022-09-23T07:20:03.534Z,86.60
2022-09-23T07:22:31.004Z,86.70
2022-09-23T07:25:41.731Z,86.50
2022-09-23T07:28:09.016Z,86.20
2022-09-23T07:30:53.479Z,86.20
2022-09-23T07:33:31.581Z,86.20
2022-09-23T07:36:00.228Z,86.50
2022-09-23T07:38:30.447Z,85.90
2022-09-23T07:41:03.308Z,86.00
2022-09-23T07:43:32.831Z,86.70
2022-09-23T07:46:05.423Z,86.90
2022-09-23T07:48:36.155Z,86.30
2022-09-23T07:51:20.765Z,86.80
2022-09-23T07:53:49.243Z,86.70
2022-09-23T07:56:16.527Z,87.10
2022-09-23T07:58:43.671Z,87.40
2022-09-23T08:01:11.025Z,87.20
2022-09-23T08:03:38.911Z,87.40
2022-09-23T08:06:12.912Z,87.50
2022-09-23T08:08:43.636Z,87.30
2022-09-23T08:11:12.281Z,88.00
2022-09-23T08:13:39.780Z,87.70
2022-09-23T08:16:07.378Z,87.50
2022-09-23T08:18:34.571Z,87.60
2022-09-23T08:26:22.281Z,87.50
2022-09-23T08:28:54.248Z,88.30
2022-09-23T08:31:22.601Z,87.80
2022-09-23T08:34:05.440Z,87.30
2022-09-23T08:36:38.582Z,87.30
2022-09-23T08:39:06.303Z,87.00
2022-09-23T08:41:39.548Z,85.90
2022-09-23T08:44:25.267Z,84.90
2022-09-23T08:47:36.246Z,85.70
2022-09-23T08:50:09.651Z,86.00
2022-09-23T08:52:40.927Z,84.20
2022-09-23T08:55:13.898Z,84.40
2022-09-23T08:58:14.108Z,84.40
2022-09-23T09:01:14.537Z,85.30
2022-09-23T09:03:50.832Z,84.40
2022-09-23T09:06:21.551Z,84.80
2022-09-23T09:09:04.827Z,83.40
2022-09-23T09:11:37.372Z,82.80
2022-09-23T09:14:27.334Z,82.80
2022-09-23T09:17:01.006Z,83.40
2022-09-23T09:19:41.112Z,83.70
2022-09-23T09:22:12.079Z,81.90
2022-09-23T09:24:45.800Z,83.30
2022-09-23T09:27:17.032Z,83.70
2022-09-23T09:33:32.912Z,84.30
2022-09-23T09:37:35.803Z,86.00
2022-09-23T09:40:03.843Z,84.60
2022-09-23T09:49:23.706Z,86.10
2022-09-23T09:52:15.616Z,86.00
2022-09-23T09:54:44.813Z,86.10
2022-09-23T09:57:35.840Z,84.60
2022-09-23T10:00:21.942Z,83.90
2022-09-23T10:02:53.174Z,85.30
2022-09-23T10:05:47.941Z,84.10
2022-09-23T10:08:35.284Z,83.70
2022-09-23T10:11:12.027Z,84.10
2022-09-23T10:13:39.062Z,83.30
2022-09-23T10:16:06.765Z,83.10
2022-09-23T10:18:47.816Z,83.40
2022-09-23T10:21:16.410Z,82.80
2022-09-23T10:23:55.006Z,82.10
2022-09-23T10:26:48.464Z,84.30
2022-09-23T10:29:32.124Z,83.90
2022-09-23T10:32:28.578Z,83.70
2022-09-23T10:35:02.097Z,83.20
2022-09-23T10:37:37.126Z,83.50
2022-09-23T10:41:02.149Z,82.70
2022-09-23T10:44:09.537Z,82.00
2022-09-23T10:46:45.178Z,81.30
2022-09-23T10:49:51.393Z,81.30
2022-09-23T10:52:18.806Z,81.00
2022-09-23T10:54:57.081Z,82.60
2022-09-23T10:57:51.821Z,81.80
2022-09-23T11:00:45.587Z,81.40
2022-09-23T11:03:21.968Z,80.60
2022-09-23T11:06:11.454Z,75.00
2022-09-23T11:09:41.562Z,75.10
2022-09-23T11:12:27.036Z,75.50
2022-09-23T11:15:37.722Z,73.20
2022-09-23T11:18:23.296Z,76.00
2022-09-23T11:21:14.409Z,72.30
2022-09-23T11:24:06.484Z,72.00
2022-09-23T11:27:13.176Z,72.10
2022-09-23T11:29:42.756Z,70.60
2022-09-23T11:32:54.822Z,70.90
2022-09-23T11:35:23.510Z,71.10
2022-09-23T11:37:58.657Z,71.40
2022-09-23T11:40:33.710Z,70.20
2022-09-23T11:43:23.793Z,73.20
2022-09-23T11:45:58.769Z,71.20
2022-09-23T11:49:05.319Z,70.00
2022-09-23T12:00:35.434Z,63.80
2022-09-23T12:04:19.122Z,64.60
2022-09-23T12:07:07.936Z,65.80
2022-09-23T12:09:57.693Z,65.40
2022-09-23T12:12:40.398Z,63.70
2022-09-23T12:15:45.144Z,62.70
2022-09-23T12:18:23.009Z,61.50
2022-09-23T12:21:32.778Z,60.90
2022-09-23T12:24:43.567Z,59.70
2022-09-23T12:27:16.405Z,60.80
2022-09-23T12:29:43.454Z,59.60
2022-09-23T12:32:18.239Z,60.00
2022-09-23T12:34:50.046Z,58.90
2022-09-23T12:37:29.001Z,60.30
2022-09-23T12:40:06.785Z,59.20
2022-09-23T12:42:34.230Z,59.80
2022-09-23T12:45:32.106Z,59.50
2022-09-23T12:48:00.267Z,58.70
2022-09-23T12:50:50.932Z,59.70
2022-09-23T12:53:34.251Z,58.80
2022-09-23T12:56:18.986Z,58.90
2022-09-23T12:58:49.540Z,60.00
2022-09-23T13:01:20.241Z,61.30
2022-09-23T13:04:10.403Z,61.70
2022-09-23T13:06:41.113Z,61.70
2022-09-23T13:09:15.863Z,60.80
2022-09-23T13:11:43.895Z,58.90
2022-09-23T13:14:13.242Z,59.30
2022-09-23T13:16:44.026Z,61.30
2022-09-23T13:19:26.491Z,60.20
2022-09-23T13:22:10.078Z,58.80
2022-09-23T13:24:39.725Z,57.70
2022-09-23T13:27:15.914Z,56.40
2022-09-23T13:30:01.126Z,55.60
2022-09-23T13:32:37.339Z,53.90
2022-09-23T13:35:13.961Z,55.60
2022-09-23T13:37:50.894Z,56.50
2022-09-23T13:40:36.379Z,55.70
2022-09-23T13:43:05.668Z,55.70
2022-09-23T13:45:34.034Z,56.00
2022-09-23T13:48:06.293Z,52.20
2022-09-23T13:50:35.163Z,53.00
2022-09-23T13:53:22.278Z,54.90
2022-09-23T13:56:01.466Z,55.30
2022-09-23T13:58:30.643Z,52.60
2022-09-23T14:00:58.030Z,51.70
2022-09-23T14:03:36.254Z,51.70
2022-09-23T14:06:11.259Z,52.30
2022-09-23T14:08:44.105Z,51.70
2022-09-23T14:11:18.570Z,51.80
2022-09-23T14:13:53.344Z,50.20
2022-09-23T14:16:27.154Z,52.70
2022-09-23T14:19:01.812Z,54.40
2022-09-23T14:21:35.575Z,51.30
2022-09-23T14:24:38.089Z,53.60
2022-09-23T14:27:08.106Z,50.70
2022-09-23T14:29:39.147Z,53.10
2022-09-23T14:32:16.932Z,50.40
2022-09-23T14:35:05.626Z,53.50
2022-09-23T14:37:57.459Z,54.00
2022-09-23T14:40:36.187Z,53.70
2022-09-23T14:43:27.784Z,52.20
2022-09-23T14:45:56.594Z,52.70
2022-09-23T14:48:24.941Z,53.20
2022-09-23T14:50:56.093Z,51.90
2022-09-23T14:53:23.314Z,53.10
2022-09-23T14:56:08.978Z,52.30
2022-09-23T14:58:43.594Z,53.60
2022-09-23T15:01:35.311Z,51.70
2022-09-23T15:04:11.703Z,51.70
2022-09-23T15:06:39.611Z,51.70
2022-09-23T15:09:09.896Z,54.40
2022-09-23T15:11:37.290Z,53.80
2022-09-23T15:14:33.073Z,54.00
2022-09-23T15:16:52.540Z,52.00
2022-09-23T15:19:20.344Z,52.70
2022-09-23T15:21:47.497Z,53.50
2022-09-23T15:24:36.281Z,53.80
2022-09-23T15:27:06.560Z,52.20
2022-09-23T15:29:33.969Z,53.50
2022-09-23T15:32:04.212Z,52.80
2022-09-23T15:34:32.044Z,52.20
2022-09-23T15:37:01.509Z,52.00
2022-09-23T15:39:35.760Z,51.60
2022-09-23T15:42:10.358Z,51.30
2022-09-23T15:44:38.156Z,52.20
2022-09-23T15:47:05.712Z,51.60
2022-09-23T15:49:36.495Z,51.40
2022-09-23T15:52:04.732Z,51.90
2022-09-23T15:54:36.777Z,50.00
2022-09-23T15:57:04.127Z,51.00
2022-09-23T15:59:33.946Z,49.50
2022-09-23T16:02:04.451Z,50.70
2022-09-23T16:04:37.301Z,49.60
2022-09-23T16:07:05.832Z,50.50
2022-09-23T16:09:33.097Z,49.90
2022-09-23T16:12:03.001Z,50.80
2022-09-23T16:14:33.589Z,52.30
2022-09-23T16:17:03.652Z,53.20
2022-09-23T16:19:34.711Z,52.00
2022-09-23T16:22:02.535Z,50.90
2022-09-23T16:24:30.938Z,53.00
2022-09-23T16:27:00.524Z,52.90
2022-09-23T16:29:27.784Z,53.20
2022-09-23T16:31:55.863Z,53.20
2022-09-23T16:34:23.149Z,53.80
2022-09-23T16:36:50.343Z,53.90
2022-09-23T16:39:20.081Z,53.90
2022-09-23T16:41:47.972Z,53.40
2022-09-23T16:44:16.401Z,53.80
2022-09-23T16:46:43.575Z,54.80
2022-09-23T16:49:14.193Z,55.50
2022-09-23T16:51:41.401Z,55.80
2022-09-23T16:54:10.448Z,55.90
2022-09-23T16:56:39.281Z,56.00
2022-09-23T16:59:06.475Z,56.30
2022-09-23T17:01:52.234Z,56.20
2022-09-23T17:04:19.934Z,56.60
2022-09-23T17:06:50.214Z,56.90
2022-09-23T17:09:21.571Z,57.60
2022-09-23T17:11:53.130Z,57.60
2022-09-23T17:14:21.210Z,57.80
2022-09-23T17:16:51.441Z,58.20
2022-09-23T17:19:18.462Z,58.20
2022-09-23T17:21:45.494Z,58.70
2022-09-23T17:24:13.250Z,58.40
2022-09-23T17:26:40.336Z,58.20
2022-09-23T17:29:09.387Z,58.00
2022-09-23T17:31:36.764Z,58.10
2022-09-23T17:34:04.017Z,58.20
2022-09-23T17:36:33.670Z,58.40
2022-09-23T17:39:05.275Z,58.40
2022-09-23T17:41:32.548Z,58.20
2022-09-23T17:44:00.935Z,58.10
2022-09-23T17:46:30.475Z,58.30
2022-09-23T17:48:57.727Z,58.30
2022-09-23T17:51:25.638Z,59.50
2022-09-23T17:53:53.008Z,58.80
2022-09-23T17:56:27.233Z,59.20
2022-09-23T17:58:54.809Z,59.10
2022-09-23T18:01:23.807Z,59.50
2022-09-23T18:03:58.831Z,59.50
2022-09-23T18:06:35.958Z,59.40
2022-09-23T18:09:04.871Z,59.70
2022-09-23T18:11:34.204Z,59.80
2022-09-23T18:14:06.415Z,60.00
2022-09-23T18:16:39.645Z,60.10
2022-09-23T18:19:07.934Z,60.60
2022-09-23T18:21:36.777Z,60.70
2022-09-23T18:24:28.592Z,60.90
2022-09-23T18:26:51.934Z,61.00
2022-09-23T18:29:19.725Z,61.20
2022-09-23T18:31:49.435Z,61.20
2022-09-23T18:34:17.359Z,61.20
2022-09-23T18:36:44.931Z,60.80
2022-09-23T18:39:13.215Z,60.50
2022-09-23T18:41:44.499Z,60.30
2022-09-23T18:49:24.180Z,60.50
2022-09-23T18:51:53.925Z,60.60
2022-09-23T18:54:21.560Z,60.50
2022-09-23T18:56:50.289Z,60.40
2022-09-23T18:59:19.613Z,60.50
2022-09-23T19:01:56.228Z,60.60
2022-09-23T19:04:24.292Z,60.90
2022-09-23T19:06:51.721Z,61.00
2022-09-23T19:09:19.297Z,60.80
2022-09-23T19:11:46.593Z,61.10
2022-09-23T19:14:14.213Z,61.20
2022-09-23T19:16:44.597Z,61.30
2022-09-23T19:19:11.719Z,61.20
2022-09-23T19:21:38.984Z,61.20
2022-09-23T19:24:07.578Z,60.90
2022-09-23T19:26:39.385Z,60.90
2022-09-23T19:29:08.569Z,61.00
2022-09-23T19:31:39.365Z,60.90
2022-09-23T19:34:11.142Z,61.00
2022-09-23T19:36:39.370Z,60.30
2022-09-23T19:39:18.492Z,61.20
2022-09-23T19:41:46.295Z,60.40
2022-09-23T19:44:13.385Z,60.60
2022-09-23T19:46:43.113Z,60.60
2022-09-23T19:49:11.217Z,60.40
2022-09-23T19:51:41.306Z,60.40
2022-09-23T19:54:09.350Z,60.50
2022-09-23T19:56:36.880Z,60.70
2022-09-23T19:59:06.001Z,60.60
2022-09-23T20:01:33.810Z,60.50
2022-09-23T20:04:04.345Z,61.50
2022-09-23T20:06:35.496Z,61.30
2022-09-23T20:09:02.733Z,61.30
2022-09-23T20:11:29.957Z,61.60
2022-09-23T20:14:02.326Z,61.50
2022-09-23T20:16:32.502Z,61.60
2022-09-23T20:19:01.288Z,62.40
2022-09-23T20:21:32.302Z,61.80
2022-09-23T20:24:01.944Z,61.90
2022-09-23T20:26:50.761Z,62.60
2022-09-23T20:29:18.049Z,62.00
2022-09-23T20:31:45.367Z,62.40
2022-09-23T20:34:12.848Z,62.20
2022-09-23T20:36:41.477Z,62.70
2022-09-23T20:39:11.866Z,63.00
2022-09-23T20:41:39.601Z,62.60
2022-09-23T20:44:10.454Z,62.80
2022-09-23T20:46:37.829Z,63.00
2022-09-23T20:49:08.008Z,63.20
2022-09-23T20:51:38.219Z,62.80
2022-09-23T20:54:05.260Z,63.20
2022-09-23T20:56:32.475Z,63.20
2022-09-23T20:59:01.042Z,63.70
2022-09-23T21:01:28.268Z,63.50
2022-09-23T21:03:56.424Z,63.30
2022-09-23T21:06:26.729Z,63.30
2022-09-23T21:08:53.855Z,63.20
2022-09-23T21:11:24.668Z,62.80
2022-09-23T21:13:51.946Z,62.80
2022-09-23T21:16:22.556Z,63.10
2022-09-23T21:18:50.733Z,63.00
2022-09-23T21:21:19.659Z,63.30
2022-09-23T21:23:47.503Z,63.60
2022-09-23T21:26:18.136Z,63.30
2022-09-23T21:28:46.763Z,63.60
2022-09-23T21:31:22.984Z,63.30
2022-09-23T21:34:00.694Z,63.50
2022-09-23T21:36:33.204Z,64.00
2022-09-23T21:39:04.413Z,63.90
2022-09-23T21:41:33.827Z,63.90
2022-09-23T21:44:08.697Z,63.90
2022-09-23T21:46:36.300Z,64.30
2022-09-23T21:49:04.117Z,64.10
2022-09-23T21:51:39.013Z,64.30
2022-09-23T21:54:07.574Z,64.40
2022-09-23T21:56:39.889Z,64.60
2022-09-23T21:59:08.153Z,64.10
2022-09-23T22:01:40.490Z,64.20
2022-09-23T22:04:13.585Z,64.70
2022-09-23T22:06:41.466Z,64.70
2022-09-23T22:09:14.072Z,64.80
2022-09-23T22:12:00.473Z,64.90
2022-09-23T22:14:27.666Z,65.50
2022-09-23T22:17:01.216Z,65.30
2022-09-23T22:19:37.003Z,65.70
2022-09-23T22:22:13.477Z,65.70
2022-09-23T22:24:41.719Z,65.90
2022-09-23T22:27:13.065Z,65.90
2022-09-23T22:30:01.875Z,66.10
2022-09-23T22:32:42.070Z,66.40
2022-09-23T22:35:11.321Z,66.60
2022-09-23T22:37:38.571Z,66.80
2022-09-23T22:40:07.355Z,67.10
2022-09-23T22:42:36.577Z,67.00
2022-09-23T22:45:06.136Z,67.30
2022-09-23T22:47:37.220Z,67.70
2022-09-23T22:50:05.836Z,68.00
2022-09-23T22:52:33.623Z,68.30
2022-09-23T22:55:03.841Z,68.60
2022-09-23T22:57:32.479Z,68.70
2022-09-23T23:00:02.599Z,69.20
2022-09-23T23:02:32.667Z,69.80
2022-09-23T23:05:01.398Z,69.90
2022-09-23T23:07:28.580Z,70.40
2022-09-23T23:09:55.857Z,70.80
2022-09-23T23:12:23.219Z,70.60
2022-09-23T23:14:50.301Z,70.80
2022-09-23T23:17:17.726Z,71.20
2022-09-23T23:19:45.216Z,71.50
2022-09-23T23:22:13.412Z,71.30
2022-09-23T23:24:40.745Z,71.60
2022-09-23T23:27:08.020Z,71.60
2022-09-23T23:29:35.185Z,72.00
2022-09-23T23:32:02.839Z,72.70
2022-09-23T23:34:30.072Z,72.90
2022-09-23T23:36:57.202Z,72.70
2022-09-23T23:39:24.758Z,73.00
2022-09-23T23:41:56.025Z,73.20
2022-09-23T23:44:24.720Z,73.30
2022-09-23T23:46:52.127Z,73.70
2022-09-23T23:49:19.793Z,74.30
2022-09-23T23:51:49.958Z,74.20
2022-09-23T23:54:17.219Z,74.40
2022-09-23T23:56:47.343Z,74.70
2022-09-23T23:59:14.488Z,75.00
